Time;durP1;ratioP1;P1;durP2;ratioP2;P2;SDS_P1;SDS_P2;PMS_P1;PMS_P2;Temp;Humidity;BMP_temperature;BMP_pressure;BME280_temperature;BME280_humidity;BME280_pressure;Samples;Min_cycle;Max_cycle;Signal;HPM_P1;HPM_P2
2024/02/28 15:41:03;;;;;;;20.60;8.10;;;;;;;9.94;29.70;100548.70;80988;1291;3012893;-71
2024/02/28 15:43:31;;;;;;;31.40;9.80;;;;;;;9.84;29.82;100553.50;79765;1292;3011629;-69
2024/02/28 15:45:58;;;;;;;35.00;12.20;;;;;;;9.66;30.31;100557.34;79928;1297;3012096;-69
2024/02/28 15:48:27;;;;;;;34.50;15.80;;;;;;;9.56;30.46;100560.20;78779;1297;3052999;-71
2024/02/28 15:50:55;;;;;;;75.00;23.40;;;;;;;9.47;30.44;100561.77;79760;1294;3013183;-67
2024/02/28 15:53:22;;;;;;;52.80;18.60;;;;;;;9.39;30.63;100564.02;79613;1292;3013269;-71
2024/02/28 15:55:50;;;;;;;41.30;16.30;;;;;;;9.23;30.87;100564.09;78677;1289;3047473;-72
2024/02/28 15:58:17;;;;;;;23.70;10.30;;;;;;;9.08;31.07;100562.88;80062;1294;3013047;-71
2024/02/28 16:00:44;;;;;;;21.30;7.90;;;;;;;9.03;31.15;100559.55;79978;1294;3011751;-71
2024/02/28 16:03:12;;;;;;;24.10;7.00;;;;;;;9.00;31.11;100561.63;78736;1292;3026691;-70
2024/02/28 16:05:38;;;;;;;23.40;6.70;;;;;;;8.84;31.51;100557.98;80015;1291;3012806;-72
2024/02/28 16:08:05;;;;;;;21.80;6.80;;;;;;;8.73;31.54;100555.77;79916;1291;3011426;-69
2024/02/28 16:10:33;;;;;;;14.70;6.40;;;;;;;8.66;31.78;100555.82;78886;1293;3026465;-72
2024/02/28 16:13:03;;;;;;;16.30;6.60;;;;;;;8.57;31.92;100557.88;80078;1290;3018463;-70
2024/02/28 16:15:33;;;;;;;17.80;8.90;;;;;;;8.49;32.20;100557.46;79442;1292;3011576;-71
2024/02/28 16:18:00;;;;;;;39.50;16.90;;;;;;;8.33;32.31;100556.92;79923;1294;3013015;-73
2024/02/28 16:20:26;;;;;;;38.70;15.60;;;;;;;8.26;32.66;100558.04;79809;1290;3011900;-68
2024/02/28 16:22:54;;;;;;;43.20;15.20;;;;;;;8.24;32.44;100562.27;78728;1289;3049924;-73
2024/02/28 16:25:22;;;;;;;23.90;11.80;;;;;;;8.14;32.66;100558.94;79934;1291;3013552;-72
2024/02/28 16:27:49;;;;;;;25.10;10.40;;;;;;;8.06;32.90;100561.30;79983;1291;3011688;-72
2024/02/28 16:30:17;;;;;;;27.90;11.10;;;;;;;8.01;32.95;100559.58;78872;1289;3048917;-72
2024/02/28 16:32:44;;;;;;;34.10;11.40;;;;;;;7.97;33.15;100560.20;80184;1293;3013992;-71
2024/02/28 16:35:11;;;;;;;33.50;10.60;;;;;;;7.85;33.35;100561.46;79961;1290;3013039;-72
2024/02/28 16:37:39;;;;;;;24.60;11.10;;;;;;;7.76;33.36;100564.20;78621;1290;3050574;-73
2024/02/28 16:40:07;;;;;;;21.60;9.40;;;;;;;7.69;33.35;100561.97;80029;1291;3020898;-68
2024/02/28 16:42:35;;;;;;;23.70;10.10;;;;;;;7.64;33.60;100566.47;80134;1291;3011594;-74
2024/02/28 16:45:05;;;;;;;28.30;10.20;;;;;;;7.55;33.93;100566.58;78655;1294;3050062;-74
2024/02/28 16:47:34;;;;;;;;;;;;;;;7.52;33.97;100565.80;79931;1294;3011600;-71
2024/02/28 16:50:03;;;;;;;26.40;11.50;;;;;;;7.40;34.00;100566.83;78799;1291;3051281;-74
2024/02/28 16:52:29;;;;;;;24.60;10.40;;;;;;;7.36;34.20;100571.00;79944;1290;3013657;-70
2024/02/28 16:54:56;;;;;;;20.60;9.80;;;;;;;7.31;34.32;100573.58;80109;1294;3011716;-73
2024/02/28 16:57:24;;;;;;;19.30;9.50;;;;;;;7.27;34.36;100574.03;78640;1291;3026267;-70
2024/02/28 16:59:50;;;;;;;22.30;10.40;;;;;;;7.20;34.53;100569.88;79798;1294;3018753;-71
2024/02/28 17:02:17;;;;;;;28.40;10.60;;;;;;;7.14;34.58;100574.73;79949;1291;3011666;-70
2024/02/28 17:04:45;;;;;;;25.50;10.40;;;;;;;7.04;34.79;100579.90;78825;1294;3052406;-69
2024/02/28 17:07:18;;;;;;;25.30;11.70;;;;;;;6.97;34.95;100578.20;79931;1291;3012862;-69
2024/02/28 17:09:46;;;;;;;29.50;11.90;;;;;;;6.93;34.86;100575.35;78878;1291;3057900;-71
2024/02/28 17:12:14;;;;;;;29.80;12.60;;;;;;;6.89;35.03;100574.94;79988;1292;3013220;-72
2024/02/28 17:14:41;;;;;;;23.90;11.70;;;;;;;6.86;35.12;100570.82;79996;1293;3013059;-75
2024/02/28 17:17:09;;;;;;;24.30;12.70;;;;;;;6.74;35.55;100569.77;78723;1294;3053827;-73
2024/02/28 17:19:36;;;;;;;27.40;13.50;;;;;;;6.64;35.68;100573.15;80037;1294;3011718;-70
2024/02/28 17:22:02;;;;;;;26.20;12.40;;;;;;;6.52;36.05;100578.19;79806;1292;3011527;-73
2024/02/28 17:24:30;;;;;;;27.60;13.10;;;;;;;6.46;36.29;100577.80;78786;1294;3057366;-76
2024/02/28 17:26:58;;;;;;;25.30;12.30;;;;;;;6.38;36.36;100578.38;79874;1292;3013095;-73
2024/02/28 17:29:25;;;;;;;28.30;12.00;;;;;;;6.33;36.27;100577.80;79861;1291;3011551;-70
2024/02/28 17:31:53;;;;;;;23.50;10.60;;;;;;;6.23;36.36;100573.88;78683;1294;3052272;-73
2024/02/28 17:34:20;;;;;;;22.50;10.10;;;;;;;6.14;36.64;100573.92;79988;1291;3014707;-71
2024/02/28 17:36:47;;;;;;;21.40;9.90;;;;;;;6.13;36.69;100578.83;79955;1294;3011442;-71
2024/02/28 17:39:17;;;;;;;22.80;9.70;;;;;;;6.04;36.97;100582.17;78699;1296;3056986;-74
2024/02/28 17:41:45;;;;;;;21.00;9.00;;;;;;;5.91;37.14;100584.38;80711;1291;3013496;-68
2024/02/28 17:44:14;;;;;;;23.80;10.40;;;;;;;5.83;37.42;100584.71;79538;1291;3011641;-70
2024/02/28 17:46:41;;;;;;;20.50;10.10;;;;;;;5.76;37.45;100584.00;80276;1291;3013495;-73
2024/02/28 17:49:07;;;;;;;22.30;10.00;;;;;;;5.66;37.73;100586.66;80305;1291;3011557;-67
2024/02/28 17:51:36;;;;;;;23.20;9.80;;;;;;;5.57;37.79;100585.11;78791;1294;3068456;-71
2024/02/28 17:54:05;;;;;;;29.60;10.70;;;;;;;5.52;38.05;100589.05;80084;1290;3012813;-71
2024/02/28 17:56:35;;;;;;;34.70;10.70;;;;;;;5.51;38.08;100585.77;79495;1291;3012119;-73
2024/02/28 17:59:01;;;;;;;25.40;11.30;;;;;;;5.39;38.40;100584.29;79923;1294;3013745;-70
2024/02/28 18:01:28;;;;;;;27.60;11.70;;;;;;;5.37;38.46;100579.64;79777;1292;3013234;-71
2024/02/28 18:03:56;;;;;;;27.90;13.10;;;;;;;5.29;38.80;100580.16;78666;1294;3025959;-71
2024/02/28 18:06:23;;;;;;;28.20;12.80;;;;;;;5.20;38.98;100578.79;80102;1291;3016006;-73
2024/02/28 18:08:50;;;;;;;29.30;12.30;;;;;;;5.15;39.17;100572.45;79999;1294;3011813;-71
2024/02/28 18:11:25;;;;;;;27.80;12.70;;;;;;;5.07;39.50;100576.44;78872;1291;3027701;-69
2024/02/28 18:13:53;;;;;;;23.30;11.70;;;;;;;5.01;39.70;100579.33;79011;1290;3049700;-70
2024/02/28 18:16:21;;;;;;;27.30;11.60;;;;;;;5.00;39.63;100578.15;79929;1294;3012903;-71
2024/02/28 18:18:48;;;;;;;28.20;13.30;;;;;;;4.97;39.78;100570.05;79854;1291;3012951;-71
2024/02/28 18:21:16;;;;;;;31.50;13.40;;;;;;;4.88;39.93;100570.73;78684;1294;3052408;-71
2024/02/28 18:23:43;;;;;;;25.70;13.20;;;;;;;4.78;40.39;100569.03;80159;1291;3018518;-70
2024/02/28 18:26:09;;;;;;;29.10;13.50;;;;;;;4.66;40.73;100566.83;80859;1291;3011632;-67
2024/02/28 18:28:37;;;;;;;31.50;15.90;;;;;;;4.72;40.40;100567.04;79185;1290;3026792;-70
2024/02/28 18:31:05;;;;;;;31.80;14.80;;;;;;;4.65;40.76;100571.17;80307;1296;3012564;-71
2024/02/28 18:33:34;;;;;;;30.40;15.50;;;;;;;4.56;40.98;100566.48;79985;1291;3011857;-72
2024/02/28 18:36:02;;;;;;;27.70;14.10;;;;;;;4.51;41.10;100564.84;78970;1294;3050936;-69
2024/02/28 18:38:28;;;;;;;34.80;14.90;;;;;;;4.52;41.23;100565.52;79936;1294;3012860;-73
2024/02/28 18:40:56;;;;;;;36.40;15.90;;;;;;;4.40;41.47;100567.98;80220;1294;3011519;-73
2024/02/28 18:43:24;;;;;;;30.10;14.70;;;;;;;4.40;41.42;100564.52;78736;1290;3026382;-74
2024/02/28 18:45:52;;;;;;;26.90;15.10;;;;;;;4.30;41.87;100565.73;80202;1290;3015308;-74
2024/02/28 18:48:19;;;;;;;28.70;14.20;;;;;;;4.29;41.98;100566.60;80201;1291;3011762;-71
2024/02/28 18:50:47;;;;;;;34.90;14.10;;;;;;;4.26;42.05;100571.17;79004;1291;3050824;-70
2024/02/28 18:53:13;;;;;;;29.40;13.90;;;;;;;4.26;42.10;100569.97;80055;1291;3013272;-72
2024/02/28 18:55:40;;;;;;;29.40;14.20;;;;;;;4.23;42.03;100569.84;80180;1291;3011324;-71
2024/02/28 18:58:09;;;;;;;22.90;12.70;;;;;;;4.11;42.48;100572.98;78998;1291;3025334;-71
2024/02/28 19:00:35;;;;;;;25.50;12.40;;;;;;;4.08;42.52;100569.73;80055;1292;3011905;-70
2024/02/28 19:03:03;;;;;;;29.50;13.50;;;;;;;4.00;42.73;100571.59;79897;1292;3011945;-71
2024/02/28 19:05:31;;;;;;;25.00;13.20;;;;;;;4.00;42.69;100575.23;79138;1291;3052237;-70
2024/02/28 19:07:57;;;;;;;28.60;13.60;;;;;;;3.96;42.90;100573.22;80161;1294;3013747;-74
2024/02/28 19:10:24;;;;;;;29.60;13.00;;;;;;;3.90;43.18;100576.09;80232;1292;3012905;-73
2024/02/28 19:12:52;;;;;;;29.80;13.40;;;;;;;3.89;43.17;100575.39;79181;1290;3025505;-74
2024/02/28 19:15:18;;;;;;;26.50;13.10;;;;;;;3.80;43.47;100572.42;80182;1291;3013558;-70
2024/02/28 19:17:45;;;;;;;27.80;13.40;;;;;;;3.74;43.65;100571.81;80053;1294;3011879;-71
2024/02/28 19:20:13;;;;;;;25.90;12.50;;;;;;;3.70;43.69;100575.33;78863;1294;3028668;-69
2024/02/28 19:22:40;;;;;;;29.60;13.20;;;;;;;3.63;43.87;100574.22;80241;1291;3013507;-70
2024/02/28 19:25:07;;;;;;;27.80;13.30;;;;;;;3.58;44.34;100570.15;80311;1294;3011510;-73
2024/02/28 19:27:35;;;;;;;27.40;12.80;;;;;;;3.52;44.46;100568.13;78807;1290;3028009;-73
2024/02/28 19:30:05;;;;;;;30.10;13.40;;;;;;;3.50;44.46;100566.95;80019;1291;3020955;-74
2024/02/28 19:32:36;;;;;;;27.50;13.50;;;;;;;3.45;44.69;100563.73;79402;1291;3013231;-75
2024/02/28 19:35:04;;;;;;;25.70;13.30;;;;;;;3.39;44.93;100560.35;79895;1294;3011770;-70
2024/02/28 19:37:32;;;;;;;30.30;14.30;;;;;;;3.29;45.28;100561.02;78992;1294;3028434;-69
2024/02/28 19:40:07;;;;;;;30.70;13.20;;;;;;;3.27;45.45;100562.93;80190;1290;3013237;-73
2024/02/28 19:42:36;;;;;;;23.40;11.90;;;;;;;3.24;45.38;100561.76;78703;1291;3056538;-72
2024/02/28 19:45:06;;;;;;;21.30;11.70;;;;;;;3.21;45.49;100559.55;80039;1290;3015651;-72
2024/02/28 19:47:36;;;;;;;20.70;11.40;;;;;;;3.17;45.71;100558.39;78815;1294;3049857;-73
2024/02/28 19:50:03;;;;;;;30.10;12.60;;;;;;;3.15;45.57;100556.70;80181;1294;3018387;-72
2024/02/28 19:52:30;;;;;;;29.40;13.70;;;;;;;3.09;45.88;100558.66;79966;1294;3011877;-71
2024/02/28 19:54:58;;;;;;;28.70;13.50;;;;;;;3.04;46.30;100563.23;78783;1291;3026168;-70
2024/02/28 19:57:24;;;;;;;28.30;13.40;;;;;;;3.03;46.31;100564.27;80138;1289;3013019;-75
2024/02/28 19:59:52;;;;;;;28.90;13.10;;;;;;;2.96;46.32;100563.65;79945;1294;3011756;-72
2024/02/28 20:02:21;;;;;;;25.20;12.90;;;;;;;2.93;46.51;100559.02;78530;1295;3050926;-73
2024/02/28 20:04:48;;;;;;;33.80;12.80;;;;;;;2.93;46.55;100558.85;79702;1296;3011493;-73
2024/02/28 20:07:15;;;;;;;26.50;11.90;;;;;;;2.90;46.77;100561.66;80001;1297;3011806;-70
2024/02/28 20:09:43;;;;;;;25.60;12.30;;;;;;;2.88;46.42;100566.70;78684;1291;3051533;-71
2024/02/28 20:12:10;;;;;;;19.70;11.60;;;;;;;2.88;46.50;100570.52;79823;1291;3013004;-75
2024/02/28 20:14:37;;;;;;;26.20;11.20;;;;;;;2.86;46.60;100568.96;79966;1296;3011526;-70
2024/02/28 20:17:08;;;;;;;22.60;11.30;;;;;;;2.83;46.71;100572.80;78808;1294;3026039;-71
2024/02/28 20:19:35;;;;;;;21.90;10.60;;;;;;;2.78;46.80;100573.05;80005;1295;3012278;-71
2024/02/28 20:22:03;;;;;;;24.70;11.40;;;;;;;2.82;46.48;100577.50;78630;1297;3026056;-73
2024/02/28 20:24:31;;;;;;;23.30;11.80;;;;;;;2.79;46.55;100578.55;80166;1296;3012722;-71
2024/02/28 20:26:57;;;;;;;28.10;11.30;;;;;;;2.80;46.49;100581.14;79903;1292;3012839;-74
2024/02/28 20:29:25;;;;;;;24.40;11.30;;;;;;;2.76;46.53;100579.97;78752;1293;3028854;-71
2024/02/28 20:31:52;;;;;;;24.40;11.00;;;;;;;2.76;46.50;100578.60;80064;1291;3012931;-72
2024/02/28 20:34:19;;;;;;;27.20;11.70;;;;;;;2.71;46.22;100576.05;79866;1296;3011637;-70
2024/02/28 20:36:47;;;;;;;23.00;9.90;;;;;;;2.76;46.01;100578.24;78733;1296;3026798;-71
2024/02/28 20:39:13;;;;;;;22.40;10.40;;;;;;;2.76;46.01;100579.46;79869;1295;3012900;-71
2024/02/28 20:41:40;;;;;;;19.80;9.20;;;;;;;2.75;45.90;100583.98;79998;1291;3012527;-71
2024/02/28 20:44:11;;;;;;;25.60;10.00;;;;;;;2.75;45.60;100586.05;78750;1292;3026290;-68
2024/02/28 20:46:37;;;;;;;22.50;8.60;;;;;;;2.74;45.62;100579.84;80092;1293;3011573;-74
2024/02/28 20:49:06;;;;;;;17.00;8.60;;;;;;;2.73;45.35;100577.59;79286;1293;3011713;-70
2024/02/28 20:51:33;;;;;;;17.40;8.60;;;;;;;2.65;45.75;100573.35;79989;1295;3018417;-70
2024/02/28 20:54:01;;;;;;;21.50;8.50;;;;;;;2.61;46.01;100570.80;79822;1297;3011620;-72
2024/02/28 20:56:29;;;;;;;15.80;8.60;;;;;;;2.60;45.86;100566.15;78616;1294;3051254;-70
2024/02/28 20:58:58;;;;;;;18.70;8.00;;;;;;;2.57;45.81;100564.60;79793;1294;3018547;-72
2024/02/28 21:01:28;;;;;;;16.70;8.20;;;;;;;2.57;45.92;100558.21;79389;1296;3013143;-74
2024/02/28 21:03:55;;;;;;;18.30;9.30;;;;;;;2.59;45.88;100550.91;80005;1292;3013876;-72
2024/02/28 21:06:22;;;;;;;21.50;9.20;;;;;;;2.49;46.52;100548.60;79880;1297;3011930;-73
2024/02/28 21:08:51;;;;;;;16.40;8.60;;;;;;;2.45;46.59;100546.73;78859;1297;3050851;-70
2024/02/28 21:11:18;;;;;;;20.70;10.00;;;;;;;2.45;46.56;100544.31;80118;1296;3013068;-74
2024/02/28 21:13:44;;;;;;;23.70;11.60;;;;;;;2.43;46.94;100548.48;79809;1297;3012091;-71
2024/02/28 21:16:13;;;;;;;22.00;10.40;;;;;;;2.38;47.25;100548.02;78606;1295;3048031;-74
2024/02/28 21:18:39;;;;;;;20.40;10.50;;;;;;;2.35;47.54;100549.77;79986;1294;3013211;-74
2024/02/28 21:21:06;;;;;;;27.00;11.60;;;;;;;2.37;47.54;100547.67;80101;1293;3011747;-74
2024/02/28 21:23:34;;;;;;;28.10;11.00;;;;;;;2.34;47.77;100548.57;78746;1297;3051160;-71
2024/02/28 21:26:00;;;;;;;23.70;9.70;;;;;;;2.35;47.87;100543.55;79941;1297;3012929;-74
2024/02/28 21:28:30;;;;;;;21.40;9.40;;;;;;;2.26;48.19;100549.52;80084;1292;3011885;-76
2024/02/28 21:30:58;;;;;;;18.90;8.50;;;;;;;2.28;48.19;100543.95;78651;1291;3049189;-69
2024/02/28 21:33:25;;;;;;;18.50;8.60;;;;;;;2.33;48.33;100542.02;79901;1293;3018888;-73
2024/02/28 21:35:51;;;;;;;15.60;8.60;;;;;;;2.28;48.65;100542.23;79870;1295;3012704;-68
2024/02/28 21:38:19;;;;;;;14.80;7.70;;;;;;;2.25;48.72;100543.46;78679;1294;3025946;-71
2024/02/28 21:40:46;;;;;;;19.60;7.70;;;;;;;2.26;48.71;100539.66;79949;1294;3013003;-72
2024/02/28 21:43:13;;;;;;;19.40;8.40;;;;;;;2.21;49.03;100542.13;79839;1296;3011419;-74
2024/02/28 21:45:41;;;;;;;15.70;7.70;;;;;;;2.17;49.29;100539.56;78764;1292;3050345;-73
2024/02/28 21:48:08;;;;;;;26.20;8.20;;;;;;;2.17;49.24;100544.92;79872;1294;3018977;-73
2024/02/28 21:50:38;;;;;;;18.40;8.50;;;;;;;2.17;48.97;100540.27;79788;1294;3011477;-68
2024/02/28 21:53:06;;;;;;;20.10;7.10;;;;;;;2.12;49.10;100535.64;78767;1297;3051354;-71
2024/02/28 21:55:32;;;;;;;14.70;6.90;;;;;;;2.06;49.42;100545.36;80051;1297;3013310;-68
2024/02/28 21:57:59;;;;;;;13.10;6.80;;;;;;;2.04;49.73;100541.58;80129;1297;3011779;-71
2024/02/28 22:00:27;;;;;;;15.60;6.30;;;;;;;2.05;49.52;100543.65;78589;1291;3026315;-72
2024/02/28 22:02:54;;;;;;;14.70;5.90;;;;;;;2.06;49.61;100538.98;80040;1292;3013004;-73
2024/02/28 22:05:22;;;;;;;13.10;5.30;;;;;;;2.03;49.64;100540.20;80117;1297;3011631;-69
2024/02/28 22:07:50;;;;;;;10.30;5.30;;;;;;;2.04;49.64;100545.05;79396;1297;3051508;-70
2024/02/28 22:10:16;;;;;;;14.80;6.00;;;;;;;1.95;50.05;100542.17;80539;1296;3013136;-72
2024/02/28 22:12:43;;;;;;;11.70;5.30;;;;;;;1.92;50.10;100539.95;81792;1291;3011338;-68
2024/02/28 22:15:11;;;;;;;13.60;5.40;;;;;;;1.87;50.25;100538.42;79164;1291;3026541;-74
2024/02/28 22:17:38;;;;;;;11.40;5.30;;;;;;;1.83;50.82;100538.47;79718;1297;3012708;-71
2024/02/28 22:20:05;;;;;;;12.40;4.80;;;;;;;1.83;50.76;100537.42;81275;1293;3011503;-71
2024/02/28 22:22:33;;;;;;;11.60;5.60;;;;;;;1.81;51.21;100534.85;80277;1294;3051947;-71
2024/02/28 22:25:00;;;;;;;9.80;5.60;;;;;;;1.82;51.34;100534.16;81114;1293;3018903;-71
2024/02/28 22:27:26;;;;;;;12.60;5.80;;;;;;;1.84;51.21;100530.67;79845;1291;3011520;-70
2024/02/28 22:29:54;;;;;;;12.00;5.80;;;;;;;1.80;51.60;100530.70;78640;1291;3026520;-68
2024/02/28 22:32:21;;;;;;;12.00;5.30;;;;;;;1.79;51.79;100524.15;79701;1296;3013002;-74
2024/02/28 22:34:47;;;;;;;11.00;5.60;;;;;;;1.80;51.72;100527.44;79810;1297;3011929;-73
2024/02/28 22:37:15;;;;;;;11.20;5.80;;;;;;;1.78;51.81;100525.39;78631;1297;3027384;-71
2024/02/28 22:39:42;;;;;;;12.70;5.90;;;;;;;1.72;52.39;100533.02;79780;1292;3014917;-71
2024/02/28 22:42:08;;;;;;;19.60;6.70;;;;;;;1.66;52.73;100531.16;79788;1295;3011543;-70
2024/02/28 22:44:36;;;;;;;14.30;6.40;;;;;;;1.59;53.18;100534.33;78569;1295;3028099;-71
2024/02/28 22:47:04;;;;;;;14.40;6.50;;;;;;;1.64;52.99;100538.61;79785;1291;3013554;-71
2024/02/28 22:49:31;;;;;;;13.00;7.00;;;;;;;1.66;53.16;100544.98;79788;1297;3011607;-68
2024/02/28 22:52:00;;;;;;;12.30;6.80;;;;;;;1.61;53.39;100542.95;78494;1297;3051272;-72
2024/02/28 22:54:27;;;;;;;14.00;6.40;;;;;;;1.61;53.28;100543.13;79816;1294;3013177;-75
2024/02/28 22:56:54;;;;;;;16.00;6.90;;;;;;;1.55;53.92;100541.23;79868;1291;3011489;-72
2024/02/28 22:59:21;;;;;;;17.10;7.20;;;;;;;1.57;53.27;100540.72;78586;1297;3049616;-68
2024/02/28 23:01:48;;;;;;;15.50;7.20;;;;;;;1.56;53.64;100543.84;79689;1296;3013517;-69
2024/02/28 23:04:16;;;;;;;17.90;7.70;;;;;;;1.53;53.77;100547.83;79825;1295;3012035;-73
2024/02/28 23:06:43;;;;;;;16.40;6.60;;;;;;;1.56;53.54;100544.87;78521;1292;3051237;-69
2024/02/28 23:09:10;;;;;;;12.80;6.10;;;;;;;1.57;53.78;100546.77;79817;1293;3013089;-74
2024/02/28 23:11:40;;;;;;;14.50;7.80;;;;;;;1.56;53.62;100547.98;79821;1296;3011694;-73
2024/02/28 23:14:11;;;;;;;15.50;7.00;;;;;;;1.56;53.94;100543.65;78614;1297;3049730;-69
2024/02/28 23:16:38;;;;;;;17.60;7.20;;;;;;;1.56;53.65;100545.91;79810;1291;3011921;-68
2024/02/28 23:19:07;;;;;;;11.70;6.70;;;;;;;1.50;54.05;100547.49;79260;1295;3012768;-73
2024/02/28 23:21:39;;;;;;;11.00;6.40;;;;;;;1.50;54.15;100544.55;79853;1294;3013351;-72
2024/02/28 23:24:07;;;;;;;12.60;7.20;;;;;;;1.50;54.13;100543.36;78725;1294;3069524;-70
2024/02/28 23:26:34;;;;;;;14.00;7.10;;;;;;;1.49;53.91;100543.52;79705;1291;3014044;-74
2024/02/28 23:29:00;;;;;;;14.80;6.00;;;;;;;1.46;53.98;100538.36;79712;1297;3011430;-73
2024/02/28 23:31:28;;;;;;;14.70;6.50;;;;;;;1.47;54.07;100537.67;78519;1294;3054036;-66
2024/02/28 23:33:55;;;;;;;13.70;6.60;;;;;;;1.45;54.10;100538.71;79903;1296;3018497;-69
2024/02/28 23:36:21;;;;;;;15.50;6.40;;;;;;;1.40;54.81;100539.09;79829;1297;3011940;-68
2024/02/28 23:38:49;;;;;;;13.80;6.50;;;;;;;1.38;54.80;100542.91;78703;1295;3026446;-69
2024/02/28 23:41:17;;;;;;;16.70;6.50;;;;;;;1.38;54.46;100546.53;79944;1291;3013092;-67
2024/02/28 23:43:43;;;;;;;15.00;6.80;;;;;;;1.41;54.31;100545.66;79728;1295;3011749;-68
2024/02/28 23:46:12;;;;;;;12.80;6.00;;;;;;;1.39;54.66;100543.94;78642;1292;3026572;-68
2024/02/28 23:48:38;;;;;;;11.50;6.20;;;;;;;1.37;54.56;100547.05;79844;1295;3013232;-71
2024/02/28 23:51:05;;;;;;;14.30;7.40;;;;;;;1.41;54.22;100554.46;79725;1297;3011670;-66
2024/02/28 23:53:33;;;;;;;14.60;7.40;;;;;;;1.43;54.16;100558.08;78617;1297;3067521;-71
2024/02/28 23:55:59;;;;;;;15.60;8.20;;;;;;;1.44;54.09;100554.79;79818;1297;3013072;-70
2024/02/28 23:58:26;;;;;;;15.60;8.60;;;;;;;1.45;53.95;100554.94;79716;1292;3013002;-68
